sensor_id;sensor_type;location;lat;lon;timestamp;P1;durP1;ratioP1;P2;durP2;ratioP2
10823;SDS011;39116;59.332;18.034;2022-09-13T00:00:14;5.35;;;2.65;;
10823;SDS011;39116;59.332;18.034;2022-09-13T00:02:41;3.53;;;2.40;;
10823;SDS011;39116;59.332;18.034;2022-09-13T00:05:07;2.90;;;2.25;;
10823;SDS011;39116;59.332;18.034;2022-09-13T00:07:34;2.65;;;1.92;;
10823;SDS011;39116;59.332;18.034;2022-09-13T00:10:01;2.83;;;2.42;;
10823;SDS011;39116;59.332;18.034;2022-09-13T00:12:28;5.20;;;2.67;;
10823;SDS011;39116;59.332;18.034;2022-09-13T00:14:55;4.18;;;2.40;;
10823;SDS011;39116;59.332;18.034;2022-09-13T00:17:22;4.43;;;2.40;;
10823;SDS011;39116;59.332;18.034;2022-09-13T00:19:48;2.67;;;2.15;;
10823;SDS011;39116;59.332;18.034;2022-09-13T00:22:15;3.63;;;2.60;;
10823;SDS011;39116;59.332;18.034;2022-09-13T00:24:41;3.00;;;2.70;;
10823;SDS011;39116;59.332;18.034;2022-09-13T00:27:08;2.88;;;2.35;;
10823;SDS011;39116;59.332;18.034;2022-09-13T00:29:36;3.03;;;2.50;;
10823;SDS011;39116;59.332;18.034;2022-09-13T00:32:03;2.67;;;2.20;;
10823;SDS011;39116;59.332;18.034;2022-09-13T00:34:30;3.90;;;2.30;;
10823;SDS011;39116;59.332;18.034;2022-09-13T00:36:56;2.42;;;2.10;;
10823;SDS011;39116;59.332;18.034;2022-09-13T00:39:23;3.10;;;2.17;;
10823;SDS011;39116;59.332;18.034;2022-09-13T00:41:49;4.30;;;2.78;;
10823;SDS011;39116;59.332;18.034;2022-09-13T00:47:03;3.35;;;2.30;;
10823;SDS011;39116;59.332;18.034;2022-09-13T00:49:30;3.10;;;2.40;;
10823;SDS011;39116;59.332;18.034;2022-09-13T00:52:00;4.03;;;2.22;;
10823;SDS011;39116;59.332;18.034;2022-09-13T00:54:30;4.00;;;2.40;;
10823;SDS011;39116;59.332;18.034;2022-09-13T00:56:59;2.78;;;2.47;;
10823;SDS011;39116;59.332;18.034;2022-09-13T00:59:27;2.85;;;1.98;;
10823;SDS011;39116;59.332;18.034;2022-09-13T01:01:55;3.38;;;2.45;;
10823;SDS011;39116;59.332;18.034;2022-09-13T01:04:24;3.92;;;2.35;;
10823;SDS011;39116;59.332;18.034;2022-09-13T01:06:52;4.03;;;2.55;;
10823;SDS011;39116;59.332;18.034;2022-09-13T01:09:19;2.72;;;2.38;;
10823;SDS011;39116;59.332;18.034;2022-09-13T01:11:46;4.22;;;2.40;;
10823;SDS011;39116;59.332;18.034;2022-09-13T01:14:15;3.22;;;2.30;;
10823;SDS011;39116;59.332;18.034;2022-09-13T01:16:42;4.47;;;2.53;;
10823;SDS011;39116;59.332;18.034;2022-09-13T01:19:08;3.05;;;2.35;;
10823;SDS011;39116;59.332;18.034;2022-09-13T01:24:29;5.00;;;2.45;;
10823;SDS011;39116;59.332;18.034;2022-09-13T01:32:41;2.97;;;2.25;;
10823;SDS011;39116;59.332;18.034;2022-09-13T01:35:13;3.70;;;2.53;;
10823;SDS011;39116;59.332;18.034;2022-09-13T01:37:48;3.38;;;2.38;;
10823;SDS011;39116;59.332;18.034;2022-09-13T01:40:17;3.10;;;2.40;;
10823;SDS011;39116;59.332;18.034;2022-09-13T01:42:53;2.80;;;2.40;;
10823;SDS011;39116;59.332;18.034;2022-09-13T01:45:24;3.53;;;2.10;;
10823;SDS011;39116;59.332;18.034;2022-09-13T01:47:56;2.50;;;2.15;;
10823;SDS011;39116;59.332;18.034;2022-09-13T01:50:26;2.28;;;2.08;;
10823;SDS011;39116;59.332;18.034;2022-09-13T01:52:57;3.10;;;2.13;;
10823;SDS011;39116;59.332;18.034;2022-09-13T01:55:31;3.50;;;2.20;;
10823;SDS011;39116;59.332;18.034;2022-09-13T01:58:02;2.90;;;2.15;;
10823;SDS011;39116;59.332;18.034;2022-09-13T02:00:33;3.03;;;2.25;;
10823;SDS011;39116;59.332;18.034;2022-09-13T02:03:02;3.20;;;2.20;;
10823;SDS011;39116;59.332;18.034;2022-09-13T02:05:32;3.67;;;2.38;;
10823;SDS011;39116;59.332;18.034;2022-09-13T02:08:03;3.15;;;2.05;;
10823;SDS011;39116;59.332;18.034;2022-09-13T02:10:32;2.53;;;2.28;;
10823;SDS011;39116;59.332;18.034;2022-09-13T02:13:00;4.20;;;2.33;;
10823;SDS011;39116;59.332;18.034;2022-09-13T02:15:30;4.75;;;2.63;;
10823;SDS011;39116;59.332;18.034;2022-09-13T02:18:01;2.42;;;2.22;;
10823;SDS011;39116;59.332;18.034;2022-09-13T02:20:32;3.55;;;2.35;;
10823;SDS011;39116;59.332;18.034;2022-09-13T02:23:01;3.55;;;2.60;;
10823;SDS011;39116;59.332;18.034;2022-09-13T02:25:29;3.47;;;2.40;;
10823;SDS011;39116;59.332;18.034;2022-09-13T02:27:58;3.80;;;2.45;;
10823;SDS011;39116;59.332;18.034;2022-09-13T02:30:26;2.72;;;2.15;;
10823;SDS011;39116;59.332;18.034;2022-09-13T02:32:54;4.07;;;2.50;;
10823;SDS011;39116;59.332;18.034;2022-09-13T02:35:23;4.07;;;2.22;;
10823;SDS011;39116;59.332;18.034;2022-09-13T02:37:52;3.35;;;2.33;;
10823;SDS011;39116;59.332;18.034;2022-09-13T02:40:23;2.65;;;2.30;;
10823;SDS011;39116;59.332;18.034;2022-09-13T02:42:51;4.57;;;2.45;;
10823;SDS011;39116;59.332;18.034;2022-09-13T02:45:20;2.58;;;2.38;;
10823;SDS011;39116;59.332;18.034;2022-09-13T02:47:49;4.63;;;2.10;;
10823;SDS011;39116;59.332;18.034;2022-09-13T02:50:24;5.20;;;2.45;;
10823;SDS011;39116;59.332;18.034;2022-09-13T02:52:57;3.03;;;2.30;;
10823;SDS011;39116;59.332;18.034;2022-09-13T02:55:27;3.80;;;2.20;;
10823;SDS011;39116;59.332;18.034;2022-09-13T02:57:58;3.13;;;2.35;;
10823;SDS011;39116;59.332;18.034;2022-09-13T03:00:25;2.85;;;2.33;;
10823;SDS011;39116;59.332;18.034;2022-09-13T03:02:53;3.67;;;2.42;;
10823;SDS011;39116;59.332;18.034;2022-09-13T03:05:20;3.35;;;2.33;;
10823;SDS011;39116;59.332;18.034;2022-09-13T03:07:46;2.88;;;2.20;;
10823;SDS011;39116;59.332;18.034;2022-09-13T03:10:15;3.10;;;2.20;;
10823;SDS011;39116;59.332;18.034;2022-09-13T03:13:04;2.58;;;2.22;;
10823;SDS011;39116;59.332;18.034;2022-09-13T03:15:39;4.28;;;2.47;;
10823;SDS011;39116;59.332;18.034;2022-09-13T03:18:14;2.40;;;2.17;;
10823;SDS011;39116;59.332;18.034;2022-09-13T03:20:43;3.45;;;2.30;;
10823;SDS011;39116;59.332;18.034;2022-09-13T03:26:07;2.90;;;2.30;;
10823;SDS011;39116;59.332;18.034;2022-09-13T03:28:38;2.97;;;2.10;;
10823;SDS011;39116;59.332;18.034;2022-09-13T03:31:10;2.83;;;2.22;;
10823;SDS011;39116;59.332;18.034;2022-09-13T03:33:40;4.28;;;2.50;;
10823;SDS011;39116;59.332;18.034;2022-09-13T03:36:10;4.85;;;2.40;;
10823;SDS011;39116;59.332;18.034;2022-09-13T03:38:38;4.63;;;2.45;;
10823;SDS011;39116;59.332;18.034;2022-09-13T03:41:08;3.03;;;2.40;;
10823;SDS011;39116;59.332;18.034;2022-09-13T03:43:38;2.60;;;2.25;;
10823;SDS011;39116;59.332;18.034;2022-09-13T03:46:07;3.42;;;2.17;;
10823;SDS011;39116;59.332;18.034;2022-09-13T03:48:35;3.45;;;2.45;;
10823;SDS011;39116;59.332;18.034;2022-09-13T03:51:03;3.80;;;2.55;;
10823;SDS011;39116;59.332;18.034;2022-09-13T03:53:29;3.90;;;2.40;;
10823;SDS011;39116;59.332;18.034;2022-09-13T03:55:57;5.95;;;2.35;;
10823;SDS011;39116;59.332;18.034;2022-09-13T03:58:25;3.47;;;2.30;;
10823;SDS011;39116;59.332;18.034;2022-09-13T04:00:52;4.43;;;2.70;;
10823;SDS011;39116;59.332;18.034;2022-09-13T04:03:19;5.38;;;3.00;;
10823;SDS011;39116;59.332;18.034;2022-09-13T04:05:45;3.80;;;2.65;;
10823;SDS011;39116;59.332;18.034;2022-09-13T04:08:12;5.07;;;2.35;;
10823;SDS011;39116;59.332;18.034;2022-09-13T04:10:38;3.10;;;2.80;;
10823;SDS011;39116;59.332;18.034;2022-09-13T04:13:05;5.47;;;2.85;;
10823;SDS011;39116;59.332;18.034;2022-09-13T04:15:33;5.57;;;2.72;;
10823;SDS011;39116;59.332;18.034;2022-09-13T04:18:00;4.70;;;2.50;;
10823;SDS011;39116;59.332;18.034;2022-09-13T04:20:26;3.83;;;2.45;;
10823;SDS011;39116;59.332;18.034;2022-09-13T04:22:54;5.32;;;2.75;;
10823;SDS011;39116;59.332;18.034;2022-09-13T04:25:21;2.47;;;2.28;;
10823;SDS011;39116;59.332;18.034;2022-09-13T04:27:48;3.33;;;2.80;;
10823;SDS011;39116;59.332;18.034;2022-09-13T04:30:18;3.28;;;2.50;;
10823;SDS011;39116;59.332;18.034;2022-09-13T04:32:47;3.40;;;2.53;;
10823;SDS011;39116;59.332;18.034;2022-09-13T04:35:14;5.30;;;2.58;;
10823;SDS011;39116;59.332;18.034;2022-09-13T04:37:43;4.53;;;2.90;;
10823;SDS011;39116;59.332;18.034;2022-09-13T04:40:10;3.03;;;2.53;;
10823;SDS011;39116;59.332;18.034;2022-09-13T04:42:37;3.58;;;2.60;;
10823;SDS011;39116;59.332;18.034;2022-09-13T04:45:04;3.58;;;2.67;;
10823;SDS011;39116;59.332;18.034;2022-09-13T04:47:30;5.22;;;2.72;;
10823;SDS011;39116;59.332;18.034;2022-09-13T04:49:58;4.93;;;2.45;;
10823;SDS011;39116;59.332;18.034;2022-09-13T04:52:25;5.05;;;2.60;;
10823;SDS011;39116;59.332;18.034;2022-09-13T04:54:51;3.95;;;2.95;;
10823;SDS011;39116;59.332;18.034;2022-09-13T04:57:18;2.92;;;2.25;;
10823;SDS011;39116;59.332;18.034;2022-09-13T04:59:45;5.88;;;2.47;;
10823;SDS011;39116;59.332;18.034;2022-09-13T05:02:11;5.63;;;2.60;;
10823;SDS011;39116;59.332;18.034;2022-09-13T05:04:38;7.05;;;2.67;;
10823;SDS011;39116;59.332;18.034;2022-09-13T05:07:06;4.28;;;2.50;;
10823;SDS011;39116;59.332;18.034;2022-09-13T05:09:32;3.17;;;2.33;;
10823;SDS011;39116;59.332;18.034;2022-09-13T05:11:59;4.43;;;2.47;;
10823;SDS011;39116;59.332;18.034;2022-09-13T05:14:25;3.83;;;2.03;;
10823;SDS011;39116;59.332;18.034;2022-09-13T05:16:52;4.45;;;2.63;;
10823;SDS011;39116;59.332;18.034;2022-09-13T05:19:18;3.35;;;2.40;;
10823;SDS011;39116;59.332;18.034;2022-09-13T05:21:45;4.07;;;2.50;;
10823;SDS011;39116;59.332;18.034;2022-09-13T05:24:13;4.05;;;2.25;;
10823;SDS011;39116;59.332;18.034;2022-09-13T05:26:39;4.53;;;2.85;;
10823;SDS011;39116;59.332;18.034;2022-09-13T05:29:06;2.85;;;2.15;;
10823;SDS011;39116;59.332;18.034;2022-09-13T05:31:33;3.75;;;2.40;;
10823;SDS011;39116;59.332;18.034;2022-09-13T05:34:01;2.90;;;2.60;;
10823;SDS011;39116;59.332;18.034;2022-09-13T05:36:28;3.75;;;2.42;;
10823;SDS011;39116;59.332;18.034;2022-09-13T05:38:54;3.53;;;2.33;;
10823;SDS011;39116;59.332;18.034;2022-09-13T05:41:22;4.43;;;2.60;;
10823;SDS011;39116;59.332;18.034;2022-09-13T05:43:49;5.18;;;2.60;;
10823;SDS011;39116;59.332;18.034;2022-09-13T05:46:16;3.42;;;2.45;;
10823;SDS011;39116;59.332;18.034;2022-09-13T05:48:43;6.72;;;2.75;;
10823;SDS011;39116;59.332;18.034;2022-09-13T05:51:11;5.57;;;2.45;;
10823;SDS011;39116;59.332;18.034;2022-09-13T05:53:39;4.95;;;2.67;;
10823;SDS011;39116;59.332;18.034;2022-09-13T05:56:06;5.63;;;2.45;;
10823;SDS011;39116;59.332;18.034;2022-09-13T05:58:37;3.70;;;2.70;;
10823;SDS011;39116;59.332;18.034;2022-09-13T06:01:04;3.63;;;2.60;;
10823;SDS011;39116;59.332;18.034;2022-09-13T06:03:31;3.42;;;2.50;;
10823;SDS011;39116;59.332;18.034;2022-09-13T06:05:57;3.30;;;2.42;;
10823;SDS011;39116;59.332;18.034;2022-09-13T06:08:24;4.47;;;2.40;;
10823;SDS011;39116;59.332;18.034;2022-09-13T06:10:55;3.47;;;2.17;;
10823;SDS011;39116;59.332;18.034;2022-09-13T06:13:22;4.28;;;2.60;;
10823;SDS011;39116;59.332;18.034;2022-09-13T06:15:50;4.47;;;2.53;;
10823;SDS011;39116;59.332;18.034;2022-09-13T06:18:16;3.50;;;2.20;;
10823;SDS011;39116;59.332;18.034;2022-09-13T06:20:43;8.13;;;2.58;;
10823;SDS011;39116;59.332;18.034;2022-09-13T06:23:10;4.88;;;2.22;;
10823;SDS011;39116;59.332;18.034;2022-09-13T06:25:36;4.78;;;2.50;;
10823;SDS011;39116;59.332;18.034;2022-09-13T06:28:03;4.63;;;2.63;;
10823;SDS011;39116;59.332;18.034;2022-09-13T06:30:29;2.90;;;2.10;;
10823;SDS011;39116;59.332;18.034;2022-09-13T06:32:57;3.20;;;2.25;;
10823;SDS011;39116;59.332;18.034;2022-09-13T06:35:24;6.20;;;2.72;;
10823;SDS011;39116;59.332;18.034;2022-09-13T06:37:53;2.83;;;2.10;;
10823;SDS011;39116;59.332;18.034;2022-09-13T06:40:20;4.55;;;2.47;;
10823;SDS011;39116;59.332;18.034;2022-09-13T06:42:46;5.22;;;2.30;;
10823;SDS011;39116;59.332;18.034;2022-09-13T06:45:13;5.00;;;2.20;;
10823;SDS011;39116;59.332;18.034;2022-09-13T06:47:40;9.13;;;2.72;;
10823;SDS011;39116;59.332;18.034;2022-09-13T06:50:08;5.57;;;2.40;;
10823;SDS011;39116;59.332;18.034;2022-09-13T06:52:35;4.47;;;2.20;;
10823;SDS011;39116;59.332;18.034;2022-09-13T06:55:01;6.72;;;2.50;;
10823;SDS011;39116;59.332;18.034;2022-09-13T06:57:28;3.80;;;2.35;;
10823;SDS011;39116;59.332;18.034;2022-09-13T06:59:55;5.80;;;2.22;;
10823;SDS011;39116;59.332;18.034;2022-09-13T07:02:21;3.15;;;2.20;;
10823;SDS011;39116;59.332;18.034;2022-09-13T07:04:49;5.43;;;2.45;;
10823;SDS011;39116;59.332;18.034;2022-09-13T07:07:16;5.45;;;2.80;;
10823;SDS011;39116;59.332;18.034;2022-09-13T07:09:43;3.38;;;2.53;;
10823;SDS011;39116;59.332;18.034;2022-09-13T07:12:10;3.85;;;2.55;;
10823;SDS011;39116;59.332;18.034;2022-09-13T07:14:36;5.65;;;2.90;;
10823;SDS011;39116;59.332;18.034;2022-09-13T07:17:03;3.97;;;2.75;;
10823;SDS011;39116;59.332;18.034;2022-09-13T07:19:29;7.22;;;3.30;;
10823;SDS011;39116;59.332;18.034;2022-09-13T07:21:56;5.40;;;2.90;;
10823;SDS011;39116;59.332;18.034;2022-09-13T07:24:24;5.07;;;3.38;;
10823;SDS011;39116;59.332;18.034;2022-09-13T07:26:51;5.38;;;3.67;;
10823;SDS011;39116;59.332;18.034;2022-09-13T07:29:18;6.03;;;3.50;;
10823;SDS011;39116;59.332;18.034;2022-09-13T07:31:47;7.30;;;3.55;;
10823;SDS011;39116;59.332;18.034;2022-09-13T07:34:14;8.07;;;4.00;;
10823;SDS011;39116;59.332;18.034;2022-09-13T07:36:41;5.80;;;4.40;;
10823;SDS011;39116;59.332;18.034;2022-09-13T07:39:09;6.15;;;4.38;;
10823;SDS011;39116;59.332;18.034;2022-09-13T07:41:37;9.13;;;3.90;;
10823;SDS011;39116;59.332;18.034;2022-09-13T07:44:03;7.15;;;4.22;;
10823;SDS011;39116;59.332;18.034;2022-09-13T07:46:32;5.55;;;4.38;;
10823;SDS011;39116;59.332;18.034;2022-09-13T07:49:01;6.80;;;4.38;;
10823;SDS011;39116;59.332;18.034;2022-09-13T07:51:28;8.07;;;4.40;;
10823;SDS011;39116;59.332;18.034;2022-09-13T07:53:56;5.88;;;4.13;;
10823;SDS011;39116;59.332;18.034;2022-09-13T07:56:23;5.70;;;3.92;;
10823;SDS011;39116;59.332;18.034;2022-09-13T07:58:52;7.90;;;3.72;;
10823;SDS011;39116;59.332;18.034;2022-09-13T08:01:20;5.50;;;3.33;;
10823;SDS011;39116;59.332;18.034;2022-09-13T08:03:49;0.13;;;0.13;;
10823;SDS011;39116;59.332;18.034;2022-09-13T08:06:16;0.00;;;0.00;;
10823;SDS011;39116;59.332;18.034;2022-09-13T08:08:42;0.00;;;0.00;;
10823;SDS011;39116;59.332;18.034;2022-09-13T08:11:09;0.00;;;0.00;;
10823;SDS011;39116;59.332;18.034;2022-09-13T08:13:39;0.00;;;0.00;;
10823;SDS011;39116;59.332;18.034;2022-09-13T08:16:07;0.00;;;0.00;;
10823;SDS011;39116;59.332;18.034;2022-09-13T08:18:33;0.00;;;0.00;;
10823;SDS011;39116;59.332;18.034;2022-09-13T08:21:00;0.00;;;0.00;;
10823;SDS011;39116;59.332;18.034;2022-09-13T08:23:26;0.00;;;0.00;;
10823;SDS011;39116;59.332;18.034;2022-09-13T08:25:53;0.00;;;0.00;;
10823;SDS011;39116;59.332;18.034;2022-09-13T08:28:20;0.00;;;0.00;;
10823;SDS011;39116;59.332;18.034;2022-09-13T08:30:47;0.00;;;0.00;;
10823;SDS011;39116;59.332;18.034;2022-09-13T08:33:15;0.00;;;0.00;;
10823;SDS011;39116;59.332;18.034;2022-09-13T08:35:49;0.00;;;0.00;;
10823;SDS011;39116;59.332;18.034;2022-09-13T08:38:15;0.00;;;0.00;;
10823;SDS011;39116;59.332;18.034;2022-09-13T08:40:43;0.00;;;0.00;;
10823;SDS011;39116;59.332;18.034;2022-09-13T08:43:11;0.00;;;0.00;;
10823;SDS011;39116;59.332;18.034;2022-09-13T08:45:41;0.00;;;0.00;;
10823;SDS011;39116;59.332;18.034;2022-09-13T08:48:09;0.10;;;0.10;;
10823;SDS011;39116;59.332;18.034;2022-09-13T08:50:38;0.00;;;0.00;;
10823;SDS011;39116;59.332;18.034;2022-09-13T08:53:11;0.00;;;0.00;;
10823;SDS011;39116;59.332;18.034;2022-09-13T08:55:43;0.00;;;0.00;;
10823;SDS011;39116;59.332;18.034;2022-09-13T08:58:17;0.00;;;0.00;;
10823;SDS011;39116;59.332;18.034;2022-09-13T09:00:45;0.00;;;0.00;;
10823;SDS011;39116;59.332;18.034;2022-09-13T09:03:17;0.00;;;0.00;;
10823;SDS011;39116;59.332;18.034;2022-09-13T09:05:48;0.00;;;0.00;;
10823;SDS011;39116;59.332;18.034;2022-09-13T09:08:18;0.00;;;0.00;;
10823;SDS011;39116;59.332;18.034;2022-09-13T09:10:49;0.03;;;0.03;;
10823;SDS011;39116;59.332;18.034;2022-09-13T09:13:17;0.00;;;0.00;;
10823;SDS011;39116;59.332;18.034;2022-09-13T09:15:45;0.00;;;0.00;;
10823;SDS011;39116;59.332;18.034;2022-09-13T09:18:16;0.00;;;0.00;;
10823;SDS011;39116;59.332;18.034;2022-09-13T09:20:44;0.00;;;0.00;;
10823;SDS011;39116;59.332;18.034;2022-09-13T09:23:13;0.00;;;0.00;;
10823;SDS011;39116;59.332;18.034;2022-09-13T09:25:40;0.00;;;0.00;;
10823;SDS011;39116;59.332;18.034;2022-09-13T09:28:08;0.00;;;0.00;;
10823;SDS011;39116;59.332;18.034;2022-09-13T09:30:37;0.00;;;0.00;;
10823;SDS011;39116;59.332;18.034;2022-09-13T09:33:08;0.00;;;0.00;;
10823;SDS011;39116;59.332;18.034;2022-09-13T09:35:43;0.00;;;0.00;;
10823;SDS011;39116;59.332;18.034;2022-09-13T09:38:30;0.00;;;0.00;;
10823;SDS011;39116;59.332;18.034;2022-09-13T09:40:58;0.00;;;0.00;;
10823;SDS011;39116;59.332;18.034;2022-09-13T09:43:30;0.00;;;0.00;;
10823;SDS011;39116;59.332;18.034;2022-09-13T09:45:59;0.00;;;0.00;;
10823;SDS011;39116;59.332;18.034;2022-09-13T09:48:28;0.00;;;0.00;;
10823;SDS011;39116;59.332;18.034;2022-09-13T09:50:56;0.00;;;0.00;;
10823;SDS011;39116;59.332;18.034;2022-09-13T09:53:24;0.00;;;0.00;;
10823;SDS011;39116;59.332;18.034;2022-09-13T09:55:56;0.03;;;0.03;;
10823;SDS011;39116;59.332;18.034;2022-09-13T10:01:13;0.00;;;0.00;;
10823;SDS011;39116;59.332;18.034;2022-09-13T10:03:42;0.10;;;0.10;;
10823;SDS011;39116;59.332;18.034;2022-09-13T10:06:17;0.10;;;0.10;;
10823;SDS011;39116;59.332;18.034;2022-09-13T10:08:46;0.00;;;0.00;;
10823;SDS011;39116;59.332;18.034;2022-09-13T10:11:15;0.00;;;0.00;;
10823;SDS011;39116;59.332;18.034;2022-09-13T10:13:55;0.38;;;0.38;;
10823;SDS011;39116;59.332;18.034;2022-09-13T10:16:24;0.00;;;0.00;;
10823;SDS011;39116;59.332;18.034;2022-09-13T10:18:51;0.10;;;0.10;;
10823;SDS011;39116;59.332;18.034;2022-09-13T10:21:20;0.00;;;0.00;;
10823;SDS011;39116;59.332;18.034;2022-09-13T10:23:48;0.00;;;0.00;;
10823;SDS011;39116;59.332;18.034;2022-09-13T10:26:16;0.10;;;0.10;;
10823;SDS011;39116;59.332;18.034;2022-09-13T10:28:45;0.00;;;0.00;;
10823;SDS011;39116;59.332;18.034;2022-09-13T10:31:12;0.00;;;0.00;;
10823;SDS011;39116;59.332;18.034;2022-09-13T10:33:40;0.00;;;0.00;;
10823;SDS011;39116;59.332;18.034;2022-09-13T10:36:11;0.00;;;0.00;;
10823;SDS011;39116;59.332;18.034;2022-09-13T10:38:39;0.00;;;0.00;;
10823;SDS011;39116;59.332;18.034;2022-09-13T10:41:06;0.20;;;0.20;;
10823;SDS011;39116;59.332;18.034;2022-09-13T10:43:35;0.00;;;0.00;;
10823;SDS011;39116;59.332;18.034;2022-09-13T10:46:02;2.40;;;0.70;;
10823;SDS011;39116;59.332;18.034;2022-09-13T10:48:29;0.00;;;0.00;;
10823;SDS011;39116;59.332;18.034;2022-09-13T10:51:01;0.00;;;0.00;;
10823;SDS011;39116;59.332;18.034;2022-09-13T10:53:37;0.00;;;0.00;;
10823;SDS011;39116;59.332;18.034;2022-09-13T10:56:04;0.10;;;0.10;;
10823;SDS011;39116;59.332;18.034;2022-09-13T10:58:31;0.00;;;0.00;;
10823;SDS011;39116;59.332;18.034;2022-09-13T11:01:15;0.00;;;0.00;;
10823;SDS011;39116;59.332;18.034;2022-09-13T11:06:36;0.00;;;0.00;;
10823;SDS011;39116;59.332;18.034;2022-09-13T11:09:06;0.00;;;0.00;;
10823;SDS011;39116;59.332;18.034;2022-09-13T11:11:37;0.00;;;0.00;;
10823;SDS011;39116;59.332;18.034;2022-09-13T11:14:12;0.00;;;0.00;;
10823;SDS011;39116;59.332;18.034;2022-09-13T11:16:47;0.00;;;0.00;;
10823;SDS011;39116;59.332;18.034;2022-09-13T11:19:30;0.00;;;0.00;;
10823;SDS011;39116;59.332;18.034;2022-09-13T11:22:10;0.00;;;0.00;;
10823;SDS011;39116;59.332;18.034;2022-09-13T11:24:42;0.00;;;0.00;;
10823;SDS011;39116;59.332;18.034;2022-09-13T11:27:14;0.00;;;0.00;;
10823;SDS011;39116;59.332;18.034;2022-09-13T11:29:47;0.00;;;0.00;;
10823;SDS011;39116;59.332;18.034;2022-09-13T11:32:21;0.00;;;0.00;;
10823;SDS011;39116;59.332;18.034;2022-09-13T11:34:55;0.00;;;0.00;;
10823;SDS011;39116;59.332;18.034;2022-09-13T11:37:31;0.10;;;0.10;;
10823;SDS011;39116;59.332;18.034;2022-09-13T11:40:02;0.00;;;0.00;;
10823;SDS011;39116;59.332;18.034;2022-09-13T11:42:37;0.00;;;0.00;;
10823;SDS011;39116;59.332;18.034;2022-09-13T11:45:17;0.05;;;0.05;;
10823;SDS011;39116;59.332;18.034;2022-09-13T11:47:50;0.10;;;0.10;;
10823;SDS011;39116;59.332;18.034;2022-09-13T11:53:33;0.10;;;0.10;;
10823;SDS011;39116;59.332;18.034;2022-09-13T11:56:04;0.00;;;0.00;;
10823;SDS011;39116;59.332;18.034;2022-09-13T11:58:33;0.00;;;0.00;;
10823;SDS011;39116;59.332;18.034;2022-09-13T12:01:02;0.10;;;0.10;;
10823;SDS011;39116;59.332;18.034;2022-09-13T12:03:33;0.00;;;0.00;;
10823;SDS011;39116;59.332;18.034;2022-09-13T12:06:04;0.00;;;0.00;;
10823;SDS011;39116;59.332;18.034;2022-09-13T12:08:32;0.00;;;0.00;;
10823;SDS011;39116;59.332;18.034;2022-09-13T12:11:02;0.00;;;0.00;;
10823;SDS011;39116;59.332;18.034;2022-09-13T12:13:29;0.00;;;0.00;;
10823;SDS011;39116;59.332;18.034;2022-09-13T12:15:58;0.00;;;0.00;;
10823;SDS011;39116;59.332;18.034;2022-09-13T12:18:27;0.00;;;0.00;;
10823;SDS011;39116;59.332;18.034;2022-09-13T12:20:56;0.00;;;0.00;;
10823;SDS011;39116;59.332;18.034;2022-09-13T12:23:26;0.00;;;0.00;;
10823;SDS011;39116;59.332;18.034;2022-09-13T12:25:56;0.00;;;0.00;;
10823;SDS011;39116;59.332;18.034;2022-09-13T12:28:25;0.08;;;0.08;;
10823;SDS011;39116;59.332;18.034;2022-09-13T12:30:53;0.10;;;0.10;;
10823;SDS011;39116;59.332;18.034;2022-09-13T12:33:21;0.00;;;0.00;;
10823;SDS011;39116;59.332;18.034;2022-09-13T12:38:37;0.05;;;0.05;;
10823;SDS011;39116;59.332;18.034;2022-09-13T12:44:14;0.10;;;0.10;;
10823;SDS011;39116;59.332;18.034;2022-09-13T12:49:35;1.75;;;1.65;;
10823;SDS011;39116;59.332;18.034;2022-09-13T12:52:12;0.00;;;0.00;;
10823;SDS011;39116;59.332;18.034;2022-09-13T12:54:57;0.03;;;0.03;;
10823;SDS011;39116;59.332;18.034;2022-09-13T12:57:32;0.00;;;0.00;;
10823;SDS011;39116;59.332;18.034;2022-09-13T13:00:07;0.00;;;0.00;;
10823;SDS011;39116;59.332;18.034;2022-09-13T13:02:36;0.00;;;0.00;;
10823;SDS011;39116;59.332;18.034;2022-09-13T13:05:05;0.00;;;0.00;;
10823;SDS011;39116;59.332;18.034;2022-09-13T13:07:33;0.00;;;0.00;;
10823;SDS011;39116;59.332;18.034;2022-09-13T13:10:02;0.00;;;0.00;;
10823;SDS011;39116;59.332;18.034;2022-09-13T13:12:29;0.00;;;0.00;;
10823;SDS011;39116;59.332;18.034;2022-09-13T13:14:57;0.00;;;0.00;;
10823;SDS011;39116;59.332;18.034;2022-09-13T13:17:34;0.00;;;0.00;;
10823;SDS011;39116;59.332;18.034;2022-09-13T13:22:49;0.00;;;0.00;;
10823;SDS011;39116;59.332;18.034;2022-09-13T13:25:30;0.00;;;0.00;;
10823;SDS011;39116;59.332;18.034;2022-09-13T13:27:57;0.00;;;0.00;;
10823;SDS011;39116;59.332;18.034;2022-09-13T13:33:15;0.00;;;0.00;;
10823;SDS011;39116;59.332;18.034;2022-09-13T13:35:43;0.75;;;0.75;;
10823;SDS011;39116;59.332;18.034;2022-09-13T13:38:13;0.10;;;0.10;;
10823;SDS011;39116;59.332;18.034;2022-09-13T13:40:41;0.00;;;0.00;;
10823;SDS011;39116;59.332;18.034;2022-09-13T13:43:14;0.00;;;0.00;;
10823;SDS011;39116;59.332;18.034;2022-09-13T13:45:55;0.15;;;0.15;;
10823;SDS011;39116;59.332;18.034;2022-09-13T13:48:33;0.00;;;0.00;;
10823;SDS011;39116;59.332;18.034;2022-09-13T13:53:56;0.00;;;0.00;;
10823;SDS011;39116;59.332;18.034;2022-09-13T13:56:29;0.00;;;0.00;;
10823;SDS011;39116;59.332;18.034;2022-09-13T13:58:59;0.00;;;0.00;;
10823;SDS011;39116;59.332;18.034;2022-09-13T14:01:29;0.00;;;0.00;;
10823;SDS011;39116;59.332;18.034;2022-09-13T14:04:27;0.00;;;0.00;;
10823;SDS011;39116;59.332;18.034;2022-09-13T14:07:00;0.00;;;0.00;;
10823;SDS011;39116;59.332;18.034;2022-09-13T14:09:29;0.00;;;0.00;;
10823;SDS011;39116;59.332;18.034;2022-09-13T14:12:15;0.30;;;0.30;;
10823;SDS011;39116;59.332;18.034;2022-09-13T14:14:57;0.00;;;0.00;;
10823;SDS011;39116;59.332;18.034;2022-09-13T14:17:38;0.00;;;0.00;;
10823;SDS011;39116;59.332;18.034;2022-09-13T14:20:07;0.00;;;0.00;;
10823;SDS011;39116;59.332;18.034;2022-09-13T14:22:36;0.00;;;0.00;;
10823;SDS011;39116;59.332;18.034;2022-09-13T14:25:12;0.10;;;0.10;;
10823;SDS011;39116;59.332;18.034;2022-09-13T14:27:40;0.00;;;0.00;;
10823;SDS011;39116;59.332;18.034;2022-09-13T14:30:16;0.00;;;0.00;;
10823;SDS011;39116;59.332;18.034;2022-09-13T14:32:43;0.00;;;0.00;;
10823;SDS011;39116;59.332;18.034;2022-09-13T14:35:21;0.00;;;0.00;;
10823;SDS011;39116;59.332;18.034;2022-09-13T14:37:49;0.10;;;0.10;;
10823;SDS011;39116;59.332;18.034;2022-09-13T14:40:16;0.00;;;0.00;;
10823;SDS011;39116;59.332;18.034;2022-09-13T14:42:45;0.00;;;0.00;;
10823;SDS011;39116;59.332;18.034;2022-09-13T14:45:12;0.00;;;0.00;;
10823;SDS011;39116;59.332;18.034;2022-09-13T14:47:42;0.00;;;0.00;;
10823;SDS011;39116;59.332;18.034;2022-09-13T14:50:12;0.00;;;0.00;;
10823;SDS011;39116;59.332;18.034;2022-09-13T14:52:41;0.00;;;0.00;;
10823;SDS011;39116;59.332;18.034;2022-09-13T14:55:11;0.00;;;0.00;;
10823;SDS011;39116;59.332;18.034;2022-09-13T14:57:40;0.00;;;0.00;;
10823;SDS011;39116;59.332;18.034;2022-09-13T15:00:16;0.00;;;0.00;;
10823;SDS011;39116;59.332;18.034;2022-09-13T15:02:45;0.00;;;0.00;;
10823;SDS011;39116;59.332;18.034;2022-09-13T15:05:13;0.00;;;0.00;;
10823;SDS011;39116;59.332;18.034;2022-09-13T15:07:41;0.00;;;0.00;;
10823;SDS011;39116;59.332;18.034;2022-09-13T15:10:17;0.05;;;0.05;;
10823;SDS011;39116;59.332;18.034;2022-09-13T15:12:49;0.00;;;0.00;;
10823;SDS011;39116;59.332;18.034;2022-09-13T15:15:31;0.25;;;0.25;;
10823;SDS011;39116;59.332;18.034;2022-09-13T15:17:59;0.08;;;0.08;;
10823;SDS011;39116;59.332;18.034;2022-09-13T15:20:26;0.10;;;0.10;;
10823;SDS011;39116;59.332;18.034;2022-09-13T15:22:53;0.45;;;0.45;;
10823;SDS011;39116;59.332;18.034;2022-09-13T15:25:21;0.00;;;0.00;;